Time;durP1;ratioP1;P1;durP2;ratioP2;P2;SDS_P1;SDS_P2;PMS_P1;PMS_P2;Temp;Humidity;BMP_temperature;BMP_pressure;BME280_temperature;BME280_humidity;BME280_pressure;Samples;Min_cycle;Max_cycle;Signal;HPM_P1;HPM_P2
2023/03/20 00:00:15;;;;;;;16.42;12.15;;;6.40;73.40;;;;;;4972954;28;20027;-56
2023/03/20 00:02:41;;;;;;;19.10;11.50;;;6.40;73.40;;;;;;4972991;28;20027;-56
2023/03/20 00:05:18;;;;;;;15.18;11.57;;;6.40;73.40;;;;;;4973344;28;20058;-58
2023/03/20 00:07:45;;;;;;;17.27;12.73;;;6.40;73.30;;;;;;4973082;28;20463;-58
2023/03/20 00:10:11;;;;;;;15.13;11.77;;;6.40;73.20;;;;;;4973032;28;20034;-53
2023/03/20 00:12:37;;;;;;;15.32;12.18;;;6.40;73.30;;;;;;4972613;28;20042;-56
2023/03/20 00:15:05;;;;;;;16.83;12.80;;;6.40;73.40;;;;;;4973090;28;20077;-53
2023/03/20 00:17:31;;;;;;;17.63;12.90;;;6.30;73.40;;;;;;4978642;28;20367;-62
2023/03/20 00:19:57;;;;;;;18.38;13.18;;;6.30;73.40;;;;;;4972923;28;20031;-62
2023/03/20 00:22:22;;;;;;;18.23;13.48;;;6.30;73.40;;;;;;4973035;28;20041;-61
2023/03/20 00:24:48;;;;;;;17.67;13.88;;;6.30;73.50;;;;;;4972336;28;20058;-61
2023/03/20 00:27:16;;;;;;;16.00;12.23;;;6.30;73.60;;;;;;4972770;28;20125;-55
2023/03/20 00:29:42;;;;;;;14.82;12.75;;;6.20;73.60;;;;;;4960914;28;20031;-55
2023/03/20 00:32:12;;;;;;;16.20;12.75;;;6.20;73.60;;;;;;4972682;28;20371;-55
2023/03/20 00:34:38;;;;;;;14.98;12.80;;;6.20;73.70;;;;;;4973752;28;20023;-58
2023/03/20 00:37:04;;;;;;;17.80;12.07;;;6.20;73.80;;;;;;4976530;28;20450;-57
2023/03/20 00:39:30;;;;;;;15.48;12.52;;;6.10;73.80;;;;;;4976634;28;20026;-55
2023/03/20 00:41:57;;;;;;;15.88;12.80;;;6.10;73.90;;;;;;4976049;28;20034;-58
2023/03/20 00:44:25;;;;;;;16.17;12.43;;;6.10;73.90;;;;;;4976362;28;20042;-55
2023/03/20 00:46:55;;;;;;;14.95;12.50;;;6.10;73.90;;;;;;4979264;28;20385;-58
2023/03/20 00:49:31;;;;;;;16.02;11.52;;;6.00;73.90;;;;;;4972173;28;20031;-56
2023/03/20 00:51:57;;;;;;;16.67;12.30;;;6.00;73.90;;;;;;4976126;28;20034;-58
2023/03/20 00:54:23;;;;;;;19.98;12.85;;;6.00;74.10;;;;;;4976005;28;20035;-56
2023/03/20 00:57:10;;;;;;;15.50;12.50;;;5.90;74.10;;;;;;4977046;28;20026;-61
2023/03/20 00:59:39;;;;;;;15.93;11.85;;;5.90;74.20;;;;;;4970297;28;20041;-60
2023/03/20 01:02:05;;;;;;;17.63;13.23;;;5.90;74.40;;;;;;4972856;28;20023;-60
2023/03/20 01:04:36;;;;;;;15.80;12.45;;;5.90;74.40;;;;;;4975632;28;20501;-61
2023/03/20 01:07:03;;;;;;;15.82;12.88;;;5.80;74.40;;;;;;4976001;28;20034;-61
2023/03/20 01:09:28;;;;;;;16.50;12.38;;;5.80;74.50;;;;;;4975817;28;20070;-60
2023/03/20 01:11:54;;;;;;;16.02;12.80;;;5.80;74.60;;;;;;4975489;28;20065;-61
2023/03/20 01:14:20;;;;;;;19.60;12.95;;;5.80;74.70;;;;;;4974547;28;20031;-60
2023/03/20 01:16:45;;;;;;;15.40;12.10;;;5.80;75.40;;;;;;4983253;28;20061;-60
2023/03/20 01:19:13;;;;;;;20.15;13.93;;;5.80;74.80;;;;;;4975393;28;20421;-60
2023/03/20 01:21:39;;;;;;;17.52;13.13;;;5.70;75.00;;;;;;4976170;28;20037;-58
2023/03/20 01:24:05;;;;;;;18.30;13.65;;;5.70;75.10;;;;;;4975331;28;20053;-58
2023/03/20 01:26:38;;;;;;;17.42;14.02;;;5.70;75.20;;;;;;4975388;28;20413;-61
2023/03/20 01:29:20;;;;;;;17.75;12.95;;;5.70;75.30;;;;;;4975147;28;20087;-61
2023/03/20 01:31:46;;;;;;;18.73;13.30;;;5.70;75.40;;;;;;4975469;28;20462;-61
2023/03/20 01:34:12;;;;;;;17.45;13.75;;;5.70;75.60;;;;;;4974867;28;20109;-62
2023/03/20 01:36:39;;;;;;;16.88;13.35;;;5.70;75.50;;;;;;4975569;28;20031;-61
2023/03/20 01:39:05;;;;;;;18.58;13.98;;;5.70;75.80;;;;;;4975317;28;20035;-62
2023/03/20 01:41:31;;;;;;;19.17;13.90;;;5.70;75.80;;;;;;4975598;28;20041;-57
2023/03/20 01:44:00;;;;;;;18.70;13.55;;;5.70;76.00;;;;;;4975146;28;20034;-54
2023/03/20 01:46:28;;;;;;;18.08;13.25;;;5.70;76.10;;;;;;4979784;28;20120;-57
2023/03/20 01:49:28;;;;;;;16.92;13.18;;;5.70;76.20;;;;;;4975793;28;20027;-56
2023/03/20 01:51:55;;;;;;;18.05;13.10;;;5.70;76.30;;;;;;4960283;28;20423;-61
2023/03/20 01:54:27;;;;;;;16.95;12.50;;;5.80;76.30;;;;;;4975335;28;20035;-62
2023/03/20 01:56:59;;;;;;;17.08;13.10;;;5.80;76.10;;;;;;4975505;28;20038;-62
2023/03/20 01:59:54;;;;;;;16.00;13.20;;;5.80;76.20;;;;;;4975458;28;20089;-61
2023/03/20 02:02:27;;;;;;;16.58;12.63;;;5.70;76.20;;;;;;4963256;28;20050;-67
2023/03/20 02:05:05;;;;;;;19.25;13.05;;;5.70;76.30;;;;;;4974803;28;20038;-65
2023/03/20 02:07:33;;;;;;;19.50;13.48;;;5.70;76.50;;;;;;4974517;28;20141;-61
2023/03/20 02:09:59;;;;;;;20.75;14.95;;;5.70;76.40;;;;;;4974429;28;20039;-61
2023/03/20 02:12:25;;;;;;;22.42;13.88;;;5.60;76.40;;;;;;4975040;28;20030;-62
2023/03/20 02:14:51;;;;;;;17.58;13.13;;;5.60;76.50;;;;;;4973418;28;20362;-61
2023/03/20 02:17:18;;;;;;;16.52;13.27;;;5.60;76.60;;;;;;4983002;28;20073;-67
2023/03/20 02:19:55;;;;;;;17.13;13.90;;;5.60;76.60;;;;;;4975473;28;20023;-64
2023/03/20 02:22:30;;;;;;;19.83;13.65;;;5.60;76.70;;;;;;4974525;28;20085;-55
2023/03/20 02:25:14;;;;;;;17.42;13.25;;;5.60;76.80;;;;;;4968270;28;20810;-61
2023/03/20 02:27:40;;;;;;;18.15;14.07;;;5.60;76.90;;;;;;4974461;28;20034;-58
2023/03/20 02:30:33;;;;;;;19.48;13.65;;;5.60;77.00;;;;;;4974451;28;20031;-56
2023/03/20 02:33:19;;;;;;;14.82;12.35;;;5.60;77.00;;;;;;4966875;28;20034;-58
2023/03/20 02:36:04;;;;;;;17.85;13.02;;;5.50;77.10;;;;;;4973920;28;20366;-66
2023/03/20 02:38:35;;;;;;;16.98;13.20;;;5.60;77.30;;;;;;4974460;28;20031;-66
2023/03/20 02:41:19;;;;;;;18.63;13.55;;;5.50;77.30;;;;;;4974030;28;20030;-67
2023/03/20 02:44:10;;;;;;;19.50;13.63;;;5.50;77.50;;;;;;4974008;28;20031;-65
2023/03/20 02:47:13;;;;;;;16.98;12.98;;;5.40;77.50;;;;;;4981357;28;20041;-62
2023/03/20 02:50:05;;;;;;;19.50;14.18;;;5.40;77.50;;;;;;4966260;28;20109;-62
2023/03/20 02:53:08;;;;;;;18.25;13.57;;;5.40;77.80;;;;;;4974283;28;20470;-62
2023/03/20 02:55:51;;;;;;;19.95;13.98;;;5.40;77.80;;;;;;4974988;28;20039;-61
2023/03/20 02:58:46;;;;;;;17.83;14.23;;;5.30;77.90;;;;;;4973487;28;20027;-60
2023/03/20 03:01:25;;;;;;;20.98;14.35;;;5.30;78.10;;;;;;4967515;28;20122;-60
2023/03/20 03:03:55;;;;;;;20.38;14.27;;;5.30;78.20;;;;;;4973219;28;20038;-60
2023/03/20 03:06:31;;;;;;;18.85;14.73;;;5.20;78.10;;;;;;4973541;28;20046;-59
2023/03/20 03:09:02;;;;;;;18.58;14.77;;;5.20;78.80;;;;;;4972788;28;20097;-60
2023/03/20 03:11:31;;;;;;;17.48;14.13;;;5.20;78.30;;;;;;4968149;28;20683;-60
2023/03/20 03:13:58;;;;;;;20.90;14.93;;;5.20;78.40;;;;;;4973644;28;20382;-60
2023/03/20 03:16:29;;;;;;;21.38;15.18;;;5.20;78.50;;;;;;4976984;28;20117;-58
2023/03/20 03:19:09;;;;;;;21.45;15.27;;;5.20;78.60;;;;;;4973968;28;20035;-58
2023/03/20 03:21:37;;;;;;;19.75;15.18;;;5.20;78.60;;;;;;4967257;28;20422;-57
2023/03/20 03:24:04;;;;;;;19.38;15.43;;;5.20;78.70;;;;;;4973269;28;20976;-56
2023/03/20 03:26:38;;;;;;;16.30;14.27;;;5.20;78.70;;;;;;4970350;28;20126;-56
2023/03/20 03:29:12;;;;;;;19.65;14.60;;;5.20;78.80;;;;;;4970211;28;20062;-57
2023/03/20 03:31:38;;;;;;;19.20;14.68;;;5.20;78.80;;;;;;4974019;28;20109;-63
2023/03/20 03:34:04;;;;;;;19.60;14.60;;;5.10;78.80;;;;;;4972985;28;20134;-67
2023/03/20 03:36:32;;;;;;;20.58;14.80;;;5.10;79.00;;;;;;4973686;28;20439;-67
2023/03/20 03:39:06;;;;;;;17.95;14.30;;;5.10;79.10;;;;;;4974010;28;20034;-65
2023/03/20 03:41:45;;;;;;;19.17;14.35;;;5.10;79.10;;;;;;4973633;28;20409;-60
2023/03/20 03:44:26;;;;;;;20.33;15.13;;;5.10;79.00;;;;;;4973493;28;20633;-60
2023/03/20 03:47:17;;;;;;;16.08;13.55;;;5.10;79.20;;;;;;4980969;28;20121;-61
2023/03/20 03:49:49;;;;;;;17.60;13.52;;;5.10;79.10;;;;;;4972943;28;20554;-61
2023/03/20 03:52:22;;;;;;;18.00;14.68;;;5.10;79.20;;;;;;4974229;28;20039;-62
2023/03/20 03:55:18;;;;;;;19.48;14.13;;;5.10;79.20;;;;;;4963143;28;20102;-62
2023/03/20 03:57:58;;;;;;;17.10;13.40;;;5.10;79.40;;;;;;4954860;28;20038;-54
2023/03/20 04:00:26;;;;;;;19.52;14.07;;;5.10;79.50;;;;;;4959802;28;20114;-55
2023/03/20 04:02:55;;;;;;;17.00;12.82;;;5.10;79.70;;;;;;4973043;28;20033;-65
2023/03/20 04:05:25;;;;;;;19.85;14.70;;;5.10;79.80;;;;;;4973184;28;20023;-68
2023/03/20 04:07:57;;;;;;;18.38;14.13;;;5.10;80.00;;;;;;4972262;28;20066;-65
2023/03/20 04:10:23;;;;;;;17.50;13.23;;;5.20;80.20;;;;;;4975737;28;20557;-66
2023/03/20 04:12:49;;;;;;;17.60;13.15;;;5.20;80.30;;;;;;4977159;28;20180;-62
2023/03/20 04:15:15;;;;;;;17.67;13.43;;;5.20;80.30;;;;;;4978696;28;20120;-62
2023/03/20 04:17:41;;;;;;;16.35;13.20;;;5.30;80.40;;;;;;4977177;28;20158;-66
2023/03/20 04:20:07;;;;;;;16.77;13.48;;;5.30;80.60;;;;;;4977960;28;20511;-66
2023/03/20 04:22:34;;;;;;;19.00;13.10;;;5.40;80.60;;;;;;4977073;28;20053;-65
2023/03/20 04:25:02;;;;;;;17.40;13.32;;;5.40;80.50;;;;;;4976946;28;20065;-66
2023/03/20 04:27:27;;;;;;;16.45;12.93;;;5.50;80.50;;;;;;4977665;28;20039;-64
2023/03/20 04:29:53;;;;;;;16.23;12.52;;;5.50;80.40;;;;;;4976513;28;20042;-65
2023/03/20 04:32:19;;;;;;;19.83;13.35;;;5.60;80.60;;;;;;4977185;28;20370;-68
2023/03/20 04:34:45;;;;;;;19.52;14.07;;;5.60;80.60;;;;;;4976854;28;20037;-66
2023/03/20 04:37:10;;;;;;;18.52;13.10;;;5.70;80.60;;;;;;4976772;28;20416;-60
2023/03/20 04:39:36;;;;;;;20.75;15.30;;;5.80;80.30;;;;;;4974479;28;20047;-61
2023/03/20 04:42:03;;;;;;;21.20;14.32;;;5.80;80.20;;;;;;4971482;28;20133;-56
2023/03/20 04:44:29;;;;;;;17.48;12.77;;;5.90;80.00;;;;;;4976110;28;20035;-56
2023/03/20 04:46:55;;;;;;;15.07;12.07;;;5.90;79.90;;;;;;4979189;28;20050;-57
2023/03/20 04:49:20;;;;;;;15.13;11.95;;;6.00;80.70;;;;;;4975829;28;20770;-57
2023/03/20 04:51:46;;;;;;;18.20;12.30;;;6.10;80.10;;;;;;4975829;28;20374;-58
2023/03/20 04:54:12;;;;;;;18.08;13.23;;;6.10;79.80;;;;;;4975788;28;20031;-56
2023/03/20 04:56:37;;;;;;;19.27;11.75;;;6.20;79.60;;;;;;4980311;28;20454;-67
2023/03/20 04:59:03;;;;;;;18.40;12.38;;;6.20;79.40;;;;;;4976418;28;20034;-65
2023/03/20 05:01:29;;;;;;;16.55;11.15;;;6.20;79.30;;;;;;4976597;28;20034;-64
2023/03/20 05:03:59;;;;;;;18.85;11.95;;;6.00;79.20;;;;;;4976554;28;20089;-66
2023/03/20 05:06:29;;;;;;;15.47;11.63;;;6.00;79.70;;;;;;4976456;28;20062;-65
2023/03/20 05:08:54;;;;;;;16.80;11.48;;;5.90;80.10;;;;;;4974930;28;20277;-63
2023/03/20 05:11:20;;;;;;;15.02;11.07;;;5.90;80.50;;;;;;4976327;28;20031;-64
2023/03/20 05:13:46;;;;;;;17.35;11.27;;;5.80;80.30;;;;;;4990643;28;20046;-63
2023/03/20 05:16:12;;;;;;;17.10;11.07;;;5.70;80.40;;;;;;4976442;28;20121;-66
2023/03/20 05:18:38;;;;;;;19.65;12.48;;;5.70;80.70;;;;;;4975536;28;20034;-64
2023/03/20 05:21:04;;;;;;;18.77;12.35;;;5.60;81.10;;;;;;4968171;28;20114;-65
2023/03/20 05:23:29;;;;;;;28.48;12.63;;;5.50;81.40;;;;;;4971921;28;20083;-64
2023/03/20 05:25:55;;;;;;;19.27;12.32;;;5.40;81.70;;;;;;4971548;28;20058;-64
2023/03/20 05:28:21;;;;;;;18.10;12.70;;;5.40;82.10;;;;;;4979035;28;20047;-67
2023/03/20 05:30:47;;;;;;;19.50;12.88;;;5.40;82.60;;;;;;4974850;28;20022;-67
2023/03/20 05:33:12;;;;;;;15.82;12.55;;;5.40;83.00;;;;;;4974610;28;20472;-66
2023/03/20 05:35:39;;;;;;;18.52;13.23;;;5.40;83.20;;;;;;4975440;28;20030;-59
2023/03/20 05:38:04;;;;;;;23.50;13.02;;;5.40;83.50;;;;;;4973202;28;20039;-59
2023/03/20 05:40:30;;;;;;;17.25;13.27;;;5.40;83.50;;;;;;4975391;28;20386;-58
2023/03/20 05:42:56;;;;;;;20.92;13.05;;;5.50;83.50;;;;;;4970264;28;20042;-59
2023/03/20 05:45:22;;;;;;;17.58;12.48;;;5.50;83.60;;;;;;4969347;28;20448;-59
2023/03/20 05:47:47;;;;;;;19.00;13.18;;;5.50;83.60;;;;;;4980571;28;20485;-65
2023/03/20 05:50:13;;;;;;;20.77;13.52;;;5.50;83.70;;;;;;4976265;28;20445;-65
2023/03/20 05:52:39;;;;;;;17.50;12.45;;;5.60;84.00;;;;;;4975642;28;20031;-66
2023/03/20 05:55:05;;;;;;;17.95;13.73;;;5.60;84.00;;;;;;4980539;28;20031;-66
2023/03/20 05:57:31;;;;;;;18.77;13.43;;;5.70;84.10;;;;;;4979803;28;20037;-59
2023/03/20 05:59:56;;;;;;;16.25;13.10;;;5.70;84.00;;;;;;4966798;28;20030;-59
2023/03/20 06:02:22;;;;;;;19.17;13.30;;;5.70;84.10;;;;;;4974729;28;20058;-55
2023/03/20 06:04:47;;;;;;;15.65;12.10;;;5.80;84.20;;;;;;4974028;28;20109;-55
2023/03/20 06:07:14;;;;;;;18.50;12.82;;;5.80;84.40;;;;;;4974536;28;20066;-54
2023/03/20 06:09:39;;;;;;;16.02;11.40;;;5.90;84.70;;;;;;4975029;28;20425;-49
2023/03/20 06:12:05;;;;;;;16.67;12.82;;;6.00;84.90;;;;;;4974572;28;20113;-60
2023/03/20 06:14:31;;;;;;;14.95;11.45;;;6.20;85.30;;;;;;4974388;28;20037;-61
2023/03/20 06:16:57;;;;;;;16.08;11.77;;;6.30;85.50;;;;;;4975444;28;20373;-65
2023/03/20 06:19:23;;;;;;;16.38;12.15;;;6.50;85.50;;;;;;4975256;28;20089;-64
2023/03/20 06:21:49;;;;;;;17.13;11.85;;;6.70;85.20;;;;;;4972671;28;20450;-58
2023/03/20 06:24:15;;;;;;;16.67;11.80;;;6.90;84.50;;;;;;4974215;28;20041;-58
2023/03/20 06:26:41;;;;;;;16.73;11.85;;;7.00;83.70;;;;;;4974332;28;20517;-57
2023/03/20 06:29:07;;;;;;;15.23;10.88;;;7.20;83.30;;;;;;4974649;28;20058;-58
2023/03/20 06:31:33;;;;;;;17.45;12.30;;;7.30;82.90;;;;;;4971749;28;20054;-60
2023/03/20 06:33:58;;;;;;;14.95;11.52;;;7.40;82.70;;;;;;4972430;28;20134;-59
2023/03/20 06:36:24;;;;;;;18.20;12.90;;;7.40;82.40;;;;;;4961474;28;20117;-59
2023/03/20 06:38:50;;;;;;;19.40;12.80;;;7.50;82.10;;;;;;4972385;28;20420;-59
2023/03/20 06:41:16;;;;;;;16.90;11.77;;;7.60;82.00;;;;;;4968003;28;20438;-51
2023/03/20 06:43:41;;;;;;;16.92;12.13;;;7.70;81.70;;;;;;4970024;28;20238;-52
2023/03/20 06:46:08;;;;;;;14.48;11.02;;;7.80;81.80;;;;;;4969600;28;20038;-54
2023/03/20 06:48:34;;;;;;;13.68;10.82;;;7.90;81.90;;;;;;4975775;28;20050;-52
2023/03/20 06:51:00;;;;;;;16.08;11.32;;;8.00;81.80;;;;;;4971341;28;20039;-56
2023/03/20 06:53:26;;;;;;;17.48;12.65;;;8.20;81.30;;;;;;4971217;28;20023;-58
2023/03/20 06:55:53;;;;;;;17.35;12.98;;;8.30;80.50;;;;;;4977938;28;20038;-52
2023/03/20 06:58:19;;;;;;;16.27;12.13;;;8.30;80.00;;;;;;4970584;28;20026;-55
2023/03/20 07:00:45;;;;;;;14.80;10.98;;;8.30;80.00;;;;;;4986128;28;20046;-57
2023/03/20 07:03:12;;;;;;;15.77;12.02;;;8.40;80.00;;;;;;4967726;28;20030;-53
2023/03/20 07:05:39;;;;;;;16.15;12.38;;;8.40;79.80;;;;;;4964676;28;20027;-52
2023/03/20 07:08:06;;;;;;;14.98;11.85;;;8.40;79.60;;;;;;4969950;28;20050;-54
2023/03/20 07:10:32;;;;;;;14.88;12.15;;;8.50;79.50;;;;;;4964701;28;20059;-54
2023/03/20 07:12:59;;;;;;;14.23;11.63;;;8.50;79.20;;;;;;4967387;28;20035;-56
2023/03/20 07:15:25;;;;;;;15.48;11.13;;;8.50;78.90;;;;;;4962364;28;20491;-51
2023/03/20 07:17:51;;;;;;;17.42;12.10;;;8.50;78.70;;;;;;4969732;28;20022;-51
2023/03/20 07:20:17;;;;;;;15.77;12.43;;;8.50;78.30;;;;;;4969487;28;20030;-58
2023/03/20 07:22:43;;;;;;;14.95;11.05;;;8.50;78.00;;;;;;4963608;28;20439;-55
2023/03/20 07:25:09;;;;;;;15.40;11.32;;;8.40;77.80;;;;;;4948854;28;20058;-55
2023/03/20 07:27:36;;;;;;;20.08;13.40;;;8.30;77.70;;;;;;4970542;28;20509;-57
2023/03/20 07:30:03;;;;;;;17.70;12.65;;;8.10;77.60;;;;;;4957743;28;20039;-56
2023/03/20 07:32:29;;;;;;;18.52;13.48;;;8.00;77.70;;;;;;4958918;28;21202;-53
2023/03/20 07:34:55;;;;;;;17.42;13.30;;;7.90;78.00;;;;;;4952388;28;20106;-53
2023/03/20 07:37:20;;;;;;;21.42;14.38;;;7.90;78.10;;;;;;4952031;28;20121;-56
2023/03/20 07:39:46;;;;;;;21.33;14.40;;;7.80;78.30;;;;;;4942165;28;20042;-58
2023/03/20 07:42:12;;;;;;;17.73;13.52;;;7.80;78.30;;;;;;4942700;28;20039;-56
2023/03/20 07:44:38;;;;;;;19.35;14.20;;;7.80;78.40;;;;;;4942810;28;20037;-56
2023/03/20 07:47:05;;;;;;;19.60;13.88;;;7.80;78.70;;;;;;4944547;28;20162;-60
2023/03/20 07:49:30;;;;;;;20.17;13.48;;;7.80;78.80;;;;;;4948828;28;20113;-54
2023/03/20 07:51:56;;;;;;;15.82;11.75;;;7.80;79.00;;;;;;4948980;28;20066;-55
2023/03/20 07:54:22;;;;;;;18.70;13.23;;;7.90;79.10;;;;;;4950651;28;20121;-53
2023/03/20 07:56:49;;;;;;;17.55;11.85;;;7.90;79.20;;;;;;4954174;28;20035;-57
2023/03/20 07:59:15;;;;;;;18.40;13.32;;;8.10;79.50;;;;;;4947097;28;20023;-55
2023/03/20 08:01:41;;;;;;;17.33;12.20;;;8.10;78.90;;;;;;4943259;28;20066;-53
2023/03/20 08:04:07;;;;;;;19.05;13.55;;;8.20;78.40;;;;;;4952750;28;20046;-57
2023/03/20 08:06:32;;;;;;;17.35;12.90;;;8.30;78.30;;;;;;4947959;28;21124;-59
2023/03/20 08:08:58;;;;;;;18.60;13.73;;;8.30;78.40;;;;;;4947132;28;20038;-51
2023/03/20 08:11:24;;;;;;;17.83;13.55;;;8.40;78.30;;;;;;4947925;28;20045;-51
2023/03/20 08:13:49;;;;;;;15.35;11.93;;;8.50;78.10;;;;;;4953852;28;20791;-52
2023/03/20 08:16:15;;;;;;;16.52;12.07;;;8.50;77.80;;;;;;4938526;28;21996;-56
2023/03/20 08:18:41;;;;;;;17.00;11.95;;;8.60;77.70;;;;;;4950971;28;20101;-54
2023/03/20 08:21:07;;;;;;;17.48;12.57;;;8.70;77.70;;;;;;4940034;28;20105;-53
2023/03/20 08:23:33;;;;;;;17.52;12.23;;;8.80;77.60;;;;;;4940298;28;20110;-57
2023/03/20 08:25:59;;;;;;;16.77;11.77;;;8.90;77.40;;;;;;4948126;28;20113;-56
2023/03/20 08:28:25;;;;;;;14.75;11.23;;;9.00;77.20;;;;;;4947307;28;20124;-59
2023/03/20 08:30:51;;;;;;;15.95;11.85;;;9.10;77.20;;;;;;4942265;28;20042;-56
2023/03/20 08:33:17;;;;;;;14.23;11.45;;;9.10;76.70;;;;;;4941405;28;20122;-61
2023/03/20 08:35:43;;;;;;;11.60;9.10;;;9.20;76.60;;;;;;4949459;28;20051;-56
2023/03/20 08:38:12;;;;;;;12.57;10.07;;;9.30;76.50;;;;;;4953592;28;20041;-58
2023/03/20 08:40:41;;;;;;;11.80;9.15;;;9.30;76.30;;;;;;4950261;28;20058;-54
2023/03/20 08:43:07;;;;;;;13.55;9.82;;;9.30;75.80;;;;;;4933219;28;20039;-57
2023/03/20 08:45:33;;;;;;;15.60;10.18;;;9.30;75.70;;;;;;4930149;28;21724;-60
2023/03/20 08:47:59;;;;;;;12.93;9.90;;;9.30;75.50;;;;;;4924120;28;20042;-57
2023/03/20 08:50:24;;;;;;;11.73;9.70;;;9.30;75.60;;;;;;4930167;28;20381;-53
2023/03/20 08:52:50;;;;;;;11.63;9.02;;;9.30;75.60;;;;;;4946666;28;20218;-57
2023/03/20 08:55:16;;;;;;;11.65;8.90;;;9.30;75.30;;;;;;4946818;28;20038;-60
2023/03/20 08:57:42;;;;;;;10.80;8.35;;;9.30;75.40;;;;;;4946024;28;20043;-58
2023/03/20 09:00:11;;;;;;;9.13;7.95;;;9.20;75.30;;;;;;4946581;28;20085;-58
2023/03/20 09:02:37;;;;;;;12.63;9.15;;;9.20;75.40;;;;;;4945744;28;20046;-52
2023/03/20 09:05:03;;;;;;;10.98;8.77;;;9.10;75.20;;;;;;4965825;28;20516;-55
2023/03/20 09:07:29;;;;;;;10.48;8.35;;;9.10;75.00;;;;;;4954763;28;20070;-55
2023/03/20 09:09:55;;;;;;;10.88;8.60;;;9.00;74.90;;;;;;4951906;28;20035;-55
2023/03/20 09:12:20;;;;;;;10.23;8.25;;;8.90;75.20;;;;;;4948111;28;20031;-60
2023/03/20 09:14:46;;;;;;;13.93;9.80;;;8.80;75.30;;;;;;4949751;28;20030;-59
2023/03/20 09:17:12;;;;;;;12.35;9.57;;;8.80;75.90;;;;;;4943034;28;20038;-54
2023/03/20 09:19:43;;;;;;;12.63;9.45;;;8.70;76.00;;;;;;4945811;28;20033;-57
2023/03/20 09:22:16;;;;;;;13.00;9.68;;;8.70;76.10;;;;;;4933357;28;20114;-60
2023/03/20 09:24:43;;;;;;;12.32;9.45;;;8.60;76.40;;;;;;4942408;28;20051;-58
2023/03/20 09:27:08;;;;;;;12.75;8.93;;;8.60;76.20;;;;;;4942953;28;20027;-59
2023/03/20 09:29:34;;;;;;;15.38;10.50;;;8.60;76.00;;;;;;4936888;28;20086;-47
2023/03/20 09:32:00;;;;;;;12.68;9.10;;;8.60;75.90;;;;;;4944392;28;20150;-57
2023/03/20 09:34:26;;;;;;;13.90;9.43;;;8.50;75.90;;;;;;4945355;28;20039;-52
2023/03/20 09:36:52;;;;;;;13.45;9.55;;;8.50;76.00;;;;;;4940537;28;20034;-56
2023/03/20 09:39:17;;;;;;;11.45;9.23;;;8.40;76.00;;;;;;4941906;28;20755;-58
2023/03/20 09:41:48;;;;;;;13.82;9.43;;;8.40;76.20;;;;;;4953042;28;20031;-51
2023/03/20 09:44:44;;;;;;;14.93;10.20;;;8.30;76.10;;;;;;4954387;28;20034;-52
2023/03/20 09:47:22;;;;;;;16.23;9.13;;;8.30;76.00;;;;;;4954538;28;20618;-52
2023/03/20 09:50:10;;;;;;;12.57;9.13;;;8.20;76.00;;;;;;4945769;28;20049;-55
2023/03/20 09:52:55;;;;;;;13.75;9.30;;;8.10;76.10;;;;;;4953179;28;20032;-55
2023/03/20 09:55:26;;;;;;;12.07;9.32;;;8.10;76.20;;;;;;4957576;28;20427;-58
2023/03/20 09:57:56;;;;;;;11.27;8.52;;;8.00;76.30;;;;;;4955801;28;20034;-59
2023/03/20 10:00:26;;;;;;;12.63;8.85;;;7.90;76.50;;;;;;4960704;28;20035;-54
2023/03/20 10:02:59;;;;;;;13.65;8.98;;;7.90;76.60;;;;;;4961266;28;21117;-56
2023/03/20 10:05:48;;;;;;;12.80;8.93;;;7.90;77.00;;;;;;4955222;28;20035;-59
2023/03/20 10:08:17;;;;;;;14.25;8.95;;;7.90;76.80;;;;;;4937894;28;20062;-56
2023/03/20 10:11:17;;;;;;;12.82;9.13;;;7.80;76.90;;;;;;4953046;28;20022;-58
2023/03/20 10:14:06;;;;;;;13.55;8.80;;;7.80;76.80;;;;;;4950546;28;20042;-57
2023/03/20 10:16:51;;;;;;;13.50;9.02;;;7.70;77.00;;;;;;4956287;28;20050;-53
2023/03/20 10:19:20;;;;;;;11.45;8.02;;;7.70;77.10;;;;;;4941549;28;20131;-57
2023/03/20 10:21:56;;;;;;;13.38;9.68;;;7.60;77.20;;;;;;4953076;28;20783;-55
2023/03/20 10:24:28;;;;;;;13.77;9.82;;;7.60;77.30;;;;;;4955752;28;20038;-55
2023/03/20 10:26:54;;;;;;;;;;;7.50;77.50;;;;;;4950881;28;20038;-55
2023/03/20 10:29:28;;;;;;;11.38;7.85;;;7.40;77.40;;;;;;4949337;28;19949;-58
2023/03/20 10:32:06;;;;;;;11.60;8.45;;;7.40;77.60;;;;;;4953061;28;21081;-55
2023/03/20 10:34:49;;;;;;;13.45;8.75;;;7.40;77.80;;;;;;4953769;28;20034;-58
2023/03/20 10:37:39;;;;;;;11.55;8.25;;;7.40;77.90;;;;;;4947944;28;20372;-56
2023/03/20 10:40:28;;;;;;;11.02;7.60;;;7.40;78.00;;;;;;4953093;28;20043;-54
2023/03/20 10:43:27;;;;;;;13.32;8.60;;;7.40;77.90;;;;;;4951109;28;20066;-54
2023/03/20 10:46:01;;;;;;;12.27;7.80;;;7.40;78.00;;;;;;4935153;28;20035;-58
2023/03/20 10:48:36;;;;;;;11.07;7.22;;;7.30;78.10;;;;;;4939096;28;20034;-57
2023/03/20 10:51:03;;;;;;;10.38;7.47;;;7.40;78.30;;;;;;4950732;28;20840;-54
2023/03/20 10:53:58;;;;;;;10.68;7.72;;;7.40;78.20;;;;;;4958111;28;20483;-56
2023/03/20 10:56:30;;;;;;;9.13;7.50;;;7.40;78.20;;;;;;4954192;28;20057;-51
2023/03/20 10:59:05;;;;;;;8.70;6.57;;;7.40;78.10;;;;;;4956932;28;20027;-58
2023/03/20 11:01:31;;;;;;;11.38;7.65;;;7.30;78.00;;;;;;4954035;28;20379;-53
2023/03/20 11:03:57;;;;;;;9.35;7.20;;;7.30;78.00;;;;;;4947234;28;20042;-57
2023/03/20 11:06:31;;;;;;;9.35;6.68;;;7.40;78.10;;;;;;4955315;28;20121;-54
2023/03/20 11:09:27;;;;;;;10.25;6.90;;;7.40;78.00;;;;;;4950186;28;20046;-54
2023/03/20 11:11:57;;;;;;;8.35;6.45;;;7.40;78.00;;;;;;4949136;28;20063;-57
2023/03/20 11:14:25;;;;;;;10.18;6.70;;;7.40;77.80;;;;;;4955792;28;20042;-51
2023/03/20 11:16:53;;;;;;;10.07;6.43;;;7.40;77.70;;;;;;4945441;28;20047;-61
2023/03/20 11:19:21;;;;;;;9.85;7.43;;;7.40;78.00;;;;;;4946474;28;20138;-56
2023/03/20 11:21:55;;;;;;;16.40;7.45;;;7.40;78.20;;;;;;4954100;28;20167;-59
2023/03/20 11:24:23;;;;;;;10.10;6.90;;;7.40;78.20;;;;;;4953845;28;20066;-51
2023/03/20 11:26:50;;;;;;;10.07;7.18;;;7.40;78.90;;;;;;4957166;28;20026;-56
2023/03/20 11:29:36;;;;;;;9.63;7.57;;;7.40;78.30;;;;;;4955364;28;20035;-57
2023/03/20 11:32:18;;;;;;;11.07;7.10;;;7.40;78.10;;;;;;4955753;28;20061;-57
2023/03/20 11:34:44;;;;;;;8.95;6.88;;;7.40;78.10;;;;;;4956746;28;20104;-59
2023/03/20 11:37:32;;;;;;;10.15;7.60;;;7.40;78.00;;;;;;4968616;28;20109;-54
2023/03/20 11:40:00;;;;;;;10.05;7.53;;;7.40;78.00;;;;;;4953208;28;20088;-55
2023/03/20 11:42:29;;;;;;;9.68;7.18;;;7.40;78.30;;;;;;4950659;28;20031;-53
2023/03/20 11:45:05;;;;;;;8.73;6.90;;;7.40;78.50;;;;;;4960937;28;20027;-55
2023/03/20 11:47:33;;;;;;;10.00;6.43;;;7.40;78.50;;;;;;4952602;28;20045;-54
2023/03/20 11:50:03;;;;;;;10.45;7.47;;;7.30;78.50;;;;;;4957688;28;20041;-49
2023/03/20 11:52:38;;;;;;;12.02;6.72;;;7.30;78.50;;;;;;4951253;28;20120;-57
2023/03/20 11:55:21;;;;;;;9.65;6.63;;;7.30;78.50;;;;;;4959776;28;20946;-56
2023/03/20 11:57:48;;;;;;;8.65;5.88;;;7.30;78.50;;;;;;4965838;28;20043;-54
2023/03/20 12:00:14;;;;;;;12.65;6.57;;;7.30;78.50;;;;;;4959722;28;20027;-51
2023/03/20 12:02:40;;;;;;;9.77;6.53;;;7.30;78.40;;;;;;4948471;28;20043;-55
2023/03/20 12:05:18;;;;;;;10.55;6.43;;;7.30;78.30;;;;;;4945137;28;20027;-60
2023/03/20 12:07:48;;;;;;;8.73;6.03;;;7.40;78.50;;;;;;4954907;28;20078;-56
2023/03/20 12:10:14;;;;;;;8.27;6.22;;;7.40;78.50;;;;;;4954150;28;20058;-56
2023/03/20 12:12:53;;;;;;;7.50;5.50;;;7.50;78.20;;;;;;4950703;28;20162;-60
2023/03/20 12:15:29;;;;;;;6.93;5.40;;;7.50;77.90;;;;;;4950671;28;20034;-52
2023/03/20 12:17:59;;;;;;;9.88;5.97;;;7.50;77.70;;;;;;4954185;28;20121;-59
2023/03/20 12:20:45;;;;;;;10.73;5.72;;;7.60;77.50;;;;;;4945305;28;21314;-57
2023/03/20 12:23:29;;;;;;;7.22;5.90;;;7.60;77.20;;;;;;4944992;28;20041;-52
2023/03/20 12:26:06;;;;;;;7.75;5.80;;;7.60;77.10;;;;;;4955530;28;20065;-54
2023/03/20 12:28:54;;;;;;;8.27;5.60;;;7.70;76.90;;;;;;4947937;28;21005;-61
2023/03/20 12:31:45;;;;;;;7.00;5.30;;;7.70;76.60;;;;;;4974157;28;20035;-53
2023/03/20 12:34:20;;;;;;;9.65;5.30;;;7.70;76.40;;;;;;4949691;28;20557;-53
2023/03/20 12:36:51;;;;;;;7.22;5.22;;;7.70;76.30;;;;;;4961188;28;20121;-55
2023/03/20 12:39:18;;;;;;;;;;;7.70;76.30;;;;;;4955296;28;20039;-60
2023/03/20 12:41:49;;;;;;;7.32;5.65;;;7.70;76.00;;;;;;4953184;28;20052;-58
2023/03/20 12:44:21;;;;;;;10.18;6.25;;;7.70;76.20;;;;;;4957426;28;20649;-53
2023/03/20 12:47:17;;;;;;;9.45;5.65;;;7.70;76.30;;;;;;4952425;28;20045;-57
2023/03/20 12:50:22;;;;;;;9.50;6.35;;;7.80;76.00;;;;;;4954419;28;20031;-59
2023/03/20 12:53:00;;;;;;;9.43;6.38;;;7.80;76.00;;;;;;4931088;28;20465;-58
2023/03/20 12:55:29;;;;;;;9.25;5.80;;;7.80;75.80;;;;;;4960705;28;20037;-58
2023/03/20 12:58:09;;;;;;;10.50;6.25;;;7.80;75.70;;;;;;4952833;28;20039;-54